createdAt,value
2022-08-29T00:00:18.575Z,97773.78
2022-08-29T00:02:49.349Z,97772.13
2022-08-29T00:05:18.655Z,97775.03
2022-08-29T00:07:47.507Z,97768.19
2022-08-29T00:10:17.069Z,97765.91
2022-08-29T00:12:47.025Z,97760.75
2022-08-29T00:15:16.615Z,97766.31
2022-08-29T00:17:45.395Z,97764.00
2022-08-29T00:20:18.608Z,97760.91
2022-08-29T00:22:47.420Z,97758.41
2022-08-29T00:25:17.061Z,97763.16
2022-08-29T00:27:49.862Z,97769.59
2022-08-29T00:30:20.555Z,97761.50
2022-08-29T00:32:48.973Z,97761.72
2022-08-29T00:35:22.042Z,97765.84
2022-08-29T00:37:51.586Z,97760.47
2022-08-29T00:40:24.766Z,97759.00
2022-08-29T00:42:54.817Z,97764.38
2022-08-29T00:45:24.488Z,97764.59
2022-08-29T00:47:57.015Z,97763.16
2022-08-29T00:50:37.011Z,97765.22
2022-08-29T00:53:08.004Z,97769.97
2022-08-29T00:55:38.763Z,97772.03
2022-08-29T00:58:18.255Z,97765.22
2022-08-29T01:00:47.586Z,97773.50
2022-08-29T01:03:15.897Z,97774.72
2022-08-29T01:05:44.226Z,97777.59
2022-08-29T01:08:12.894Z,97770.16
2022-08-29T01:10:59.046Z,97773.06
2022-08-29T01:13:36.074Z,97775.53
2022-08-29T01:16:06.767Z,97776.56
2022-08-29T01:18:38.053Z,97774.06
2022-08-29T01:21:17.344Z,97785.03
2022-08-29T01:23:53.368Z,97779.88
2022-08-29T01:26:24.149Z,97777.38
2022-08-29T01:28:53.804Z,97773.00
2022-08-29T01:31:37.723Z,97780.28
2022-08-29T01:34:14.534Z,97784.16
2022-08-29T01:36:50.347Z,97784.16
2022-08-29T01:39:19.443Z,97790.38
2022-08-29T01:41:50.136Z,97790.38
2022-08-29T01:44:21.801Z,97795.13
2022-08-29T01:46:56.810Z,97786.25
2022-08-29T01:49:28.119Z,97789.94
2022-08-29T01:51:56.477Z,97785.41
2022-08-29T01:54:24.731Z,97783.75
2022-08-29T01:56:55.650Z,97785.63
2022-08-29T01:59:28.355Z,97780.22
2022-08-29T02:02:02.664Z,97781.06
2022-08-29T02:04:31.531Z,97777.53
2022-08-29T02:07:00.343Z,97780.03
2022-08-29T02:09:29.671Z,97775.91
2022-08-29T02:12:01.723Z,97782.72
2022-08-29T02:14:31.463Z,97784.38
2022-08-29T02:16:59.791Z,97782.53
2022-08-29T02:19:28.447Z,97780.66
2022-08-29T02:21:57.204Z,97780.66
2022-08-29T02:24:26.452Z,97774.25
2022-08-29T02:26:56.395Z,97770.50
2022-08-29T02:29:30.821Z,97764.31
2022-08-29T02:32:07.116Z,97767.63
2022-08-29T02:34:37.044Z,97762.25
2022-08-29T02:37:06.008Z,97767.03
2022-08-29T02:39:35.165Z,97764.13
2022-08-29T02:42:03.826Z,97770.13
2022-08-29T02:44:33.874Z,97768.28
2022-08-29T02:47:02.349Z,97760.22
2022-08-29T02:49:30.700Z,97766.41
2022-08-29T02:51:59.525Z,97766.22
2022-08-29T02:54:27.911Z,97766.84
2022-08-29T02:56:56.204Z,97765.00
2022-08-29T02:59:24.529Z,97760.22
2022-08-29T03:01:54.647Z,97768.28
2022-08-29T03:04:23.066Z,97765.41
2022-08-29T03:06:51.353Z,97766.84
2022-08-29T03:09:19.679Z,97771.22
2022-08-29T03:11:47.997Z,97769.97
2022-08-29T03:14:16.276Z,97778.66
2022-08-29T03:16:44.685Z,97780.53
2022-08-29T03:19:14.522Z,97784.88
2022-08-29T03:21:44.991Z,97790.88
2022-08-29T03:24:13.377Z,97785.50
2022-08-29T03:26:41.684Z,97789.84
2022-08-29T03:29:09.990Z,97788.81
2022-08-29T03:31:38.469Z,97786.13
2022-08-29T03:34:06.974Z,97786.75
2022-08-29T03:36:36.699Z,97788.41
2022-08-29T03:39:05.283Z,97791.09
2022-08-29T03:41:34.716Z,97786.53
2022-08-29T03:44:03.289Z,97788.41
2022-08-29T03:46:31.661Z,97791.91
2022-08-29T03:49:00.081Z,97793.81
2022-08-29T03:51:29.295Z,97791.09
2022-08-29T03:53:59.761Z,97785.53
2022-08-29T03:56:28.893Z,97789.03
2022-08-29T03:58:58.458Z,97797.94
2022-08-29T04:01:29.682Z,97797.09
2022-08-29T04:03:59.213Z,97804.16
2022-08-29T04:06:29.350Z,97808.31
2022-08-29T04:08:59.136Z,97810.16
2022-08-29T04:11:29.855Z,97805.41
2022-08-29T04:13:58.194Z,97808.94
2022-08-29T04:16:31.024Z,97814.13
2022-08-29T04:19:00.109Z,97809.34
2022-08-29T04:21:29.127Z,97807.47
2022-08-29T04:23:58.864Z,97818.88
2022-08-29T04:26:36.459Z,97809.78
2022-08-29T04:29:06.980Z,97811.41
2022-08-29T04:31:36.579Z,97817.63
2022-08-29T04:34:06.639Z,97815.78
2022-08-29T04:36:35.630Z,97820.13
2022-08-29T04:39:06.816Z,97817.44
2022-08-29T04:41:36.784Z,97829.66
2022-08-29T04:44:06.435Z,97826.34
2022-08-29T04:46:35.322Z,97825.94
2022-08-29T04:49:04.650Z,97834.84
2022-08-29T04:51:34.385Z,97833.00
2022-08-29T04:54:05.110Z,97828.63
2022-08-29T04:56:34.594Z,97829.44
2022-08-29T04:59:03.519Z,97823.88
2022-08-29T05:01:32.022Z,97835.28
2022-08-29T05:04:00.791Z,97829.91
2022-08-29T05:06:29.320Z,97835.09
2022-08-29T05:08:59.313Z,97839.44
2022-08-29T05:11:32.441Z,97838.41
2022-08-29T05:14:02.526Z,97841.13
2022-08-29T05:16:31.859Z,97839.22
2022-08-29T05:19:00.770Z,97843.81
2022-08-29T05:21:34.940Z,97836.34
2022-08-29T05:24:05.729Z,97838.00
2022-08-29T05:26:38.934Z,97834.47
2022-08-29T05:29:10.825Z,97838.00
2022-08-29T05:31:41.114Z,97837.19
2022-08-29T05:34:14.054Z,97837.78
2022-08-29T05:36:59.005Z,97837.78
2022-08-29T05:39:27.508Z,97834.06
2022-08-29T05:41:58.444Z,97837.38
2022-08-29T05:44:34.233Z,97838.00
2022-08-29T05:47:04.442Z,97835.75
2022-08-29T05:49:32.908Z,97834.91
2022-08-29T05:52:01.495Z,97842.56
2022-08-29T05:54:30.331Z,97843.63
2022-08-29T05:57:00.115Z,97850.00
2022-08-29T05:59:28.532Z,97849.19
2022-08-29T06:01:57.053Z,97846.50
2022-08-29T06:04:25.464Z,97844.63
2022-08-29T06:06:53.787Z,97856.03
2022-08-29T06:09:22.132Z,97854.59
2022-08-29T06:11:53.216Z,97856.03
2022-08-29T06:14:22.965Z,97863.06
2022-08-29T06:16:51.359Z,97862.25
2022-08-29T06:19:19.742Z,97863.72
2022-08-29T06:21:48.520Z,97873.22
2022-08-29T06:24:17.407Z,97866.19
2022-08-29T06:26:46.180Z,97871.38
2022-08-29T06:29:16.071Z,97868.88
2022-08-29T06:31:45.804Z,97874.72
2022-08-29T06:34:14.318Z,97871.81
2022-08-29T06:36:42.917Z,97871.81
2022-08-29T06:39:12.712Z,97875.94
2022-08-29T06:41:42.654Z,97865.16
2022-08-29T06:44:11.617Z,97876.38
2022-08-29T06:46:43.102Z,97871.78
2022-08-29T06:49:15.870Z,97880.31
2022-08-29T06:51:49.125Z,97886.34
2022-08-29T06:54:19.364Z,97886.94
2022-08-29T06:56:47.998Z,97881.97
2022-08-29T06:59:16.601Z,97883.63
2022-08-29T07:01:45.611Z,97887.78
2022-08-29T07:04:16.053Z,97888.59
2022-08-29T07:06:49.817Z,97891.09
2022-08-29T07:09:18.705Z,97890.69
2022-08-29T07:11:47.027Z,97897.50
2022-08-29T07:14:15.544Z,97901.88
2022-08-29T07:16:44.102Z,97903.31
2022-08-29T07:19:13.901Z,97904.16
2022-08-29T07:21:42.230Z,97903.13
2022-08-29T07:24:10.861Z,97903.13
2022-08-29T07:26:43.739Z,97906.88
2022-08-29T07:29:15.261Z,97912.25
2022-08-29T07:31:44.118Z,97900.84
2022-08-29T07:34:14.686Z,97907.88
2022-08-29T07:36:43.168Z,97902.06
2022-08-29T07:39:15.398Z,97914.53
2022-08-29T07:41:45.411Z,97913.50
2022-08-29T07:44:15.034Z,97908.09
2022-08-29T07:46:44.216Z,97915.13
2022-08-29T07:49:14.319Z,97912.44
2022-08-29T07:51:44.416Z,97911.84
2022-08-29T07:54:16.548Z,97918.88
2022-08-29T07:56:44.882Z,97915.97
2022-08-29T07:59:13.815Z,97912.25
2022-08-29T08:01:42.280Z,97912.69
2022-08-29T08:04:12.222Z,97916.22
2022-08-29T08:06:44.954Z,97922.22
2022-08-29T08:09:15.285Z,97925.56
2022-08-29T08:11:44.019Z,97925.34
2022-08-29T08:14:13.051Z,97926.78
2022-08-29T08:16:44.328Z,97925.78
2022-08-29T08:19:13.721Z,97929.06
2022-08-29T08:21:49.620Z,97931.56
2022-08-29T08:24:19.905Z,97934.88
2022-08-29T08:26:48.865Z,97937.16
2022-08-29T08:29:17.844Z,97938.41
2022-08-29T08:31:46.907Z,97944.44
2022-08-29T08:34:15.757Z,97943.38
2022-08-29T08:36:46.481Z,97952.09
2022-08-29T08:39:15.569Z,97956.25
2022-08-29T08:41:54.703Z,97965.78
2022-08-29T08:45:00.599Z,97963.06
2022-08-29T08:47:34.017Z,97962.66
2022-08-29T08:50:07.847Z,97967.66
2022-08-29T08:52:45.399Z,97970.97
2022-08-29T08:55:28.277Z,97967.84
2022-08-29T08:58:06.094Z,97962.25
2022-08-29T09:00:45.412Z,97965.59
2022-08-29T09:03:46.676Z,97969.72
2022-08-29T09:06:26.794Z,97967.88
2022-08-29T09:09:10.326Z,97961.22
2022-08-29T09:11:55.352Z,97960.16
2022-08-29T09:14:39.596Z,97956.22
2022-08-29T09:17:15.252Z,97961.41
2022-08-29T09:19:44.075Z,97966.41
2022-08-29T09:22:19.031Z,97963.69
2022-08-29T09:24:54.908Z,97964.31
2022-08-29T09:27:26.001Z,97965.97
2022-08-29T09:30:00.770Z,97969.28
2022-08-29T09:32:29.308Z,97963.69
2022-08-29T09:35:08.617Z,97972.22
2022-08-29T09:37:38.709Z,97970.16
2022-08-29T09:40:16.695Z,97966.41
2022-08-29T09:43:01.413Z,97964.94
2022-08-29T09:45:29.940Z,97972.59
2022-08-29T09:48:14.380Z,97964.50
2022-08-29T09:50:43.411Z,97971.13
2022-08-29T09:53:23.819Z,97968.00
2022-08-29T09:55:55.234Z,97962.19
2022-08-29T09:58:37.569Z,97962.81
2022-08-29T10:01:11.795Z,97968.63
2022-08-29T10:03:44.561Z,97964.47
2022-08-29T10:06:17.854Z,97971.91
2022-08-29T10:09:00.981Z,97959.63
2022-08-29T10:11:38.468Z,97967.94
2022-08-29T10:14:12.775Z,97959.00
2022-08-29T10:17:20.485Z,97958.94
2022-08-29T10:19:49.793Z,97955.38
2022-08-29T10:22:37.353Z,97951.25
2022-08-29T10:25:11.924Z,97962.03
2022-08-29T10:27:46.871Z,97950.56
2022-08-29T10:30:19.650Z,97954.88
2022-08-29T10:33:09.609Z,97956.13
2022-08-29T10:35:47.676Z,97960.69
2022-08-29T10:38:30.975Z,97953.16
2022-08-29T10:41:08.523Z,97956.63
2022-08-29T10:43:43.141Z,97950.38
2022-08-29T10:46:37.070Z,97951.16
2022-08-29T10:49:18.220Z,97945.47
2022-08-29T10:51:57.467Z,97948.81
2022-08-29T10:54:37.508Z,97947.09
2022-08-29T10:57:08.716Z,97943.59
2022-08-29T10:59:57.089Z,97950.47
2022-08-29T11:02:35.213Z,97950.72
2022-08-29T11:05:11.021Z,97942.75
2022-08-29T11:07:45.295Z,97942.63
2022-08-29T11:10:20.404Z,97932.06
2022-08-29T11:12:55.449Z,97931.09
2022-08-29T11:15:29.259Z,97929.66
2022-08-29T11:18:10.165Z,97922.03
2022-08-29T11:20:45.320Z,97918.56
2022-08-29T11:23:27.789Z,97912.41
2022-08-29T11:25:58.005Z,97908.78
2022-08-29T11:28:36.206Z,97899.50
2022-08-29T11:31:13.937Z,97904.06
2022-08-29T11:33:53.119Z,97900.28
2022-08-29T11:36:44.130Z,97907.59
2022-08-29T11:39:44.022Z,97901.78
2022-08-29T11:42:49.736Z,97900.72
2022-08-29T11:45:09.154Z,97902.56
2022-08-29T11:47:58.968Z,97899.47
2022-08-29T11:50:34.038Z,97896.44
2022-08-29T11:53:16.586Z,97887.19
2022-08-29T11:56:23.527Z,97888.06
2022-08-29T11:58:59.642Z,97884.88
2022-08-29T12:02:00.771Z,97875.63
2022-08-29T12:04:54.812Z,97873.78
2022-08-29T12:07:36.104Z,97870.78
2022-08-29T12:10:09.476Z,97873.78
2022-08-29T12:12:45.288Z,97871.88
2022-08-29T12:15:55.763Z,97863.13
2022-08-29T12:18:45.195Z,97864.38
2022-08-29T12:21:48.717Z,97872.19
2022-08-29T12:24:41.801Z,97866.34
2022-08-29T12:27:41.850Z,97865.94
2022-08-29T12:30:11.274Z,97859.78
2022-08-29T12:32:57.149Z,97859.34
2022-08-29T12:36:03.113Z,97857.03
2022-08-29T12:38:50.197Z,97857.63
2022-08-29T12:41:42.639Z,97850.09
2022-08-29T12:44:16.632Z,97846.06
2022-08-29T12:46:49.627Z,97843.91
2022-08-29T12:49:25.385Z,97843.16
2022-08-29T12:51:58.494Z,97838.31
2022-08-29T12:54:34.809Z,97831.28
2022-08-29T12:57:05.179Z,97835.16
2022-08-29T12:59:35.189Z,97834.66
2022-08-29T13:02:03.882Z,97826.72
2022-08-29T13:04:35.205Z,97827.56
2022-08-29T13:07:07.155Z,97832.19
2022-08-29T13:09:42.205Z,97822.09
2022-08-29T13:12:16.623Z,97826.19
2022-08-29T13:15:01.194Z,97826.50
2022-08-29T13:17:34.734Z,97821.28
2022-08-29T13:20:46.262Z,97824.91
2022-08-29T13:23:29.637Z,97828.75
2022-08-29T13:26:05.653Z,97822.22
2022-08-29T13:28:44.060Z,97815.97
2022-08-29T13:31:33.136Z,97826.63
2022-08-29T13:34:21.958Z,97817.84
2022-08-29T13:37:00.084Z,97817.31
2022-08-29T13:39:41.634Z,97810.19
2022-08-29T13:42:35.340Z,97805.00
2022-08-29T13:45:15.526Z,97807.44
2022-08-29T13:48:14.550Z,97806.28
2022-08-29T13:50:42.915Z,97802.19
2022-08-29T13:53:11.408Z,97803.03
2022-08-29T13:55:43.338Z,97801.13
2022-08-29T13:58:15.043Z,97800.31
2022-08-29T14:00:44.093Z,97803.34
2022-08-29T14:03:14.791Z,97803.91
2022-08-29T14:05:43.618Z,97796.78
2022-08-29T14:08:13.434Z,97789.69
2022-08-29T14:10:42.533Z,97788.59
2022-08-29T14:13:12.383Z,97785.56
2022-08-29T14:15:40.837Z,97785.56
2022-08-29T14:18:09.391Z,97781.50
2022-08-29T14:20:39.029Z,97782.56
2022-08-29T14:23:07.416Z,97789.41
2022-08-29T14:25:35.781Z,97784.22
2022-08-29T14:28:04.781Z,97774.66
2022-08-29T14:30:34.496Z,97770.25
2022-08-29T14:33:02.841Z,97767.50
2022-08-29T14:35:32.135Z,97764.25
2022-08-29T14:38:02.360Z,97768.91
2022-08-29T14:40:32.256Z,97766.44
2022-08-29T14:43:02.401Z,97765.91
2022-08-29T14:45:33.995Z,97766.97
2022-08-29T14:48:02.392Z,97761.78
2022-08-29T14:50:31.092Z,97757.41
2022-08-29T14:52:59.418Z,97748.63
2022-08-29T14:55:28.035Z,97751.91
2022-08-29T14:57:56.457Z,97750.78
2022-08-29T15:00:29.569Z,97747.75
2022-08-29T15:03:00.005Z,97747.22
2022-08-29T15:05:28.718Z,97747.22
2022-08-29T15:07:57.385Z,97742.81
2022-08-29T15:10:27.062Z,97747.22
2022-08-29T15:12:55.531Z,97743.94
2022-08-29T15:15:29.154Z,97736.28
2022-08-29T15:18:01.292Z,97740.34
2022-08-29T15:20:36.135Z,97744.75
2022-08-29T15:23:05.964Z,97742.81
2022-08-29T15:25:34.474Z,97740.66
2022-08-29T15:28:03.110Z,97739.28
2022-08-29T15:30:31.377Z,97742.59
2022-08-29T15:33:01.051Z,97739.56
2022-08-29T15:35:29.535Z,97736.56
2022-08-29T15:37:58.147Z,97739.06
2022-08-29T15:40:27.069Z,97734.16
2022-08-29T15:42:55.465Z,97735.81
2022-08-29T15:45:23.902Z,97736.38
2022-08-29T15:47:53.927Z,97739.09
2022-08-29T15:50:24.456Z,97738.00
2022-08-29T15:52:53.302Z,97725.44
2022-08-29T15:55:21.895Z,97737.16
2022-08-29T15:57:52.672Z,97733.63
2022-08-29T16:00:30.054Z,97728.69
2022-08-29T16:03:02.610Z,97728.97
2022-08-29T16:05:33.822Z,97724.28
2022-08-29T16:08:02.861Z,97719.34
2022-08-29T16:10:31.692Z,97723.97
2022-08-29T16:13:00.463Z,97727.22
2022-08-29T16:15:31.151Z,97717.06
2022-08-29T16:18:00.518Z,97728.53
2022-08-29T16:20:31.332Z,97723.84
2022-08-29T16:23:00.475Z,97717.19
2022-08-29T16:25:29.656Z,97711.44
2022-08-29T16:27:58.526Z,97714.13
2022-08-29T16:30:30.198Z,97718.44
2022-08-29T16:32:58.974Z,97716.19
2022-08-29T16:35:27.775Z,97714.19
2022-08-29T16:38:02.802Z,97716.59
2022-08-29T16:40:32.610Z,97719.56
2022-08-29T16:43:02.008Z,97722.75
2022-08-29T16:45:32.313Z,97722.16
2022-08-29T16:48:00.964Z,97718.00
2022-08-29T16:50:30.949Z,97721.22
2022-08-29T16:53:01.808Z,97721.66
2022-08-29T16:55:31.075Z,97721.88
2022-08-29T16:58:22.316Z,97722.31
2022-08-29T17:00:52.071Z,97719.78
2022-08-29T17:03:20.524Z,97720.22
2022-08-29T17:05:49.903Z,97723.44
2022-08-29T17:08:18.674Z,97727.44
2022-08-29T17:10:46.396Z,97722.41
2022-08-29T17:13:13.630Z,97725.09
2022-08-29T17:15:41.236Z,97724.44
2022-08-29T17:18:10.027Z,97722.19
2022-08-29T17:20:38.481Z,97716.06
2022-08-29T17:23:10.489Z,97726.34
2022-08-29T17:25:40.584Z,97720.28
2022-08-29T17:28:18.570Z,97717.97
2022-08-29T17:30:48.966Z,97710.25
2022-08-29T17:33:17.785Z,97721.31
2022-08-29T17:35:46.433Z,97725.28
2022-08-29T17:38:15.629Z,97730.09
2022-08-29T17:40:46.238Z,97726.97
2022-08-29T17:43:18.340Z,97729.28
2022-08-29T17:45:47.172Z,97724.28
2022-08-29T17:48:15.753Z,97727.63
2022-08-29T17:50:44.517Z,97727.22
2022-08-29T17:53:12.988Z,97732.22
2022-08-29T17:55:41.655Z,97731.00
2022-08-29T17:58:11.536Z,97732.47
2022-08-29T18:00:40.341Z,97730.16
2022-08-29T18:03:08.828Z,97735.16
2022-08-29T18:05:37.937Z,97729.25
2022-08-29T18:08:07.436Z,97732.63
2022-08-29T18:10:37.231Z,97738.44
2022-08-29T18:13:06.013Z,97750.53
2022-08-29T18:15:35.795Z,97751.41
2022-08-29T18:18:06.196Z,97749.06
2022-08-29T18:20:34.761Z,97750.25
2022-08-29T18:23:03.215Z,97752.25
2022-08-29T18:25:31.918Z,97754.28
2022-08-29T18:28:00.453Z,97762.78
2022-08-29T18:30:28.913Z,97758.56
2022-08-29T18:32:58.635Z,97760.34
2022-08-29T18:35:26.963Z,97763.41
2022-08-29T18:37:55.301Z,97770.38
2022-08-29T18:40:24.553Z,97766.72
2022-08-29T18:42:53.296Z,97772.88
2022-08-29T18:45:21.707Z,97773.78
2022-08-29T18:47:50.256Z,97780.94
2022-08-29T18:50:35.288Z,97777.28
2022-08-29T18:53:07.917Z,97779.78
2022-08-29T18:55:36.532Z,97792.97
2022-08-29T18:58:05.465Z,97793.88
2022-08-29T19:00:34.226Z,97791.06
2022-08-29T19:03:04.560Z,97798.22
2022-08-29T19:05:36.670Z,97795.63
2022-08-29T19:08:05.934Z,97802.00
2022-08-29T19:10:35.300Z,97805.16
2022-08-29T19:13:07.640Z,97811.28
2022-08-29T19:15:41.350Z,97805.91
2022-08-29T19:18:11.657Z,97809.53
2022-08-29T19:20:59.945Z,97813.38
2022-08-29T19:23:28.342Z,97801.22
2022-08-29T19:25:56.811Z,97817.94
2022-08-29T19:28:25.646Z,97820.28
2022-08-29T19:30:54.616Z,97822.84
2022-08-29T19:33:23.038Z,97822.09
2022-08-29T19:35:53.734Z,97821.13
2022-08-29T19:38:23.895Z,97822.84
2022-08-29T19:40:56.439Z,97822.66
2022-08-29T19:43:27.427Z,97823.00
2022-08-29T19:45:57.470Z,97817.63
2022-08-29T19:48:28.015Z,97816.91
2022-08-29T19:50:58.134Z,97816.97
2022-08-29T19:53:27.171Z,97810.56
2022-08-29T19:55:56.934Z,97817.50
2022-08-29T19:58:31.589Z,97820.69
2022-08-29T20:01:02.639Z,97828.69
2022-08-29T20:03:32.566Z,97828.28
2022-08-29T20:06:07.591Z,97825.63
2022-08-29T20:08:36.944Z,97824.63
2022-08-29T20:11:06.568Z,97825.13
2022-08-29T20:13:36.317Z,97822.03
2022-08-29T20:16:13.961Z,97823.16
2022-08-29T20:18:47.127Z,97829.22
2022-08-29T20:21:20.779Z,97827.16
2022-08-29T20:23:57.103Z,97828.88
2022-08-29T20:26:29.426Z,97826.00
2022-08-29T20:28:58.377Z,97830.41
2022-08-29T20:31:27.831Z,97835.41
2022-08-29T20:33:56.356Z,97841.47
2022-08-29T20:36:44.940Z,97833.19
2022-08-29T20:39:16.934Z,97836.72
2022-08-29T20:41:50.077Z,97831.16
2022-08-29T20:44:20.410Z,97829.13
2022-08-29T20:46:50.400Z,97833.53
2022-08-29T20:49:22.863Z,97840.38
2022-08-29T20:51:53.650Z,97838.31
2022-08-29T20:54:24.556Z,97831.72
2022-08-29T20:56:54.166Z,97832.34
2022-08-29T20:59:26.548Z,97833.22
2022-08-29T21:01:56.544Z,97834.91
2022-08-29T21:04:42.468Z,97831.19
2022-08-29T21:07:15.343Z,97825.19
2022-08-29T21:09:45.969Z,97838.91
2022-08-29T21:12:15.666Z,97835.00
2022-08-29T21:14:44.596Z,97828.34
2022-08-29T21:17:15.067Z,97835.19
2022-08-29T21:19:44.054Z,97833.75
2022-08-29T21:22:15.186Z,97837.72
2022-08-29T21:24:44.020Z,97838.94
2022-08-29T21:27:12.436Z,97836.88
2022-08-29T21:29:42.475Z,97838.38
2022-08-29T21:32:10.795Z,97842.53
2022-08-29T21:34:39.089Z,97834.03
2022-08-29T21:37:07.507Z,97840.88
2022-08-29T21:39:37.216Z,97846.06
2022-08-29T21:42:06.714Z,97850.03
2022-08-29T21:44:35.619Z,97842.78
2022-08-29T21:47:04.394Z,97847.53
2022-08-29T21:49:32.956Z,97849.00
2022-08-29T21:52:02.198Z,97849.84
2022-08-29T21:54:30.628Z,97848.19
2022-08-29T21:57:00.386Z,97858.56
2022-08-29T21:59:28.911Z,97851.94
2022-08-29T22:01:57.453Z,97856.88
2022-08-29T22:04:28.625Z,97845.88
2022-08-29T22:06:59.438Z,97850.66
2022-08-29T22:09:28.927Z,97850.03
2022-08-29T22:11:57.422Z,97854.19
2022-08-29T22:14:42.154Z,97852.75
2022-08-29T22:17:10.473Z,97849.44
2022-08-29T22:19:39.501Z,97855.22
2022-08-29T22:22:10.248Z,97863.72
2022-08-29T22:24:38.693Z,97861.44
2022-08-29T22:27:07.481Z,97866.41
2022-08-29T22:29:37.509Z,97864.34
2022-08-29T22:32:06.469Z,97856.44
2022-08-29T22:34:34.893Z,97866.00
2022-08-29T22:37:03.291Z,97857.28
2022-08-29T22:39:31.732Z,97868.47
2022-08-29T22:42:00.126Z,97868.88
2022-08-29T22:47:20.232Z,97865.97
2022-08-29T22:49:48.630Z,97865.34
2022-08-29T22:52:16.987Z,97869.28
2022-08-29T22:54:45.352Z,97873.84
2022-08-29T22:57:18.136Z,97874.03
2022-08-29T22:59:48.716Z,97877.97
2022-08-29T23:02:20.575Z,97868.25
2022-08-29T23:04:51.954Z,97879.44
2022-08-29T23:07:21.137Z,97871.72
2022-08-29T23:09:50.685Z,97870.25
2022-08-29T23:12:19.613Z,97872.53
2022-08-29T23:14:48.360Z,97870.84
2022-08-29T23:17:19.964Z,97874.78
2022-08-29T23:19:49.416Z,97875.19
2022-08-29T23:22:18.328Z,97871.66
2022-08-29T23:24:53.879Z,97877.44
2022-08-29T23:27:27.901Z,97871.47
2022-08-29T23:29:56.581Z,97874.56
2022-08-29T23:32:26.809Z,97866.88
2022-08-29T23:34:55.814Z,97868.75
2022-08-29T23:37:24.379Z,97865.81
2022-08-29T23:39:52.794Z,97857.34
2022-08-29T23:42:21.180Z,97858.53
2022-08-29T23:44:49.744Z,97857.09
2022-08-29T23:47:18.795Z,97858.13
2022-08-29T23:49:48.616Z,97858.53
2022-08-29T23:52:16.997Z,97856.25
2022-08-29T23:54:45.391Z,97855.81
2022-08-29T23:57:13.762Z,97855.41
2022-08-29T23:59:59.613Z,97854.13
